createdAt,value
2022-12-17T00:00:46.866Z,15.63
2022-12-17T00:02:27.803Z,15.10
2022-12-17T00:04:08.684Z,15.10
2022-12-17T00:05:50.427Z,15.80
2022-12-17T00:07:31.036Z,13.70
2022-12-17T00:09:11.749Z,14.93
2022-12-17T00:10:52.219Z,14.30
2022-12-17T00:12:32.745Z,14.33
2022-12-17T00:14:13.521Z,14.40
2022-12-17T00:15:54.746Z,13.87
2022-12-17T00:17:37.093Z,14.90
2022-12-17T00:19:17.665Z,14.30
2022-12-17T00:21:09.048Z,13.37
2022-12-17T00:22:50.688Z,13.80
2022-12-17T00:24:31.526Z,13.07
2022-12-17T00:26:13.867Z,13.80
2022-12-17T00:27:54.498Z,13.17
2022-12-17T00:29:35.210Z,13.57
2022-12-17T00:31:15.821Z,13.50
2022-12-17T00:32:56.548Z,12.10
2022-12-17T00:34:37.297Z,12.97
2022-12-17T00:36:17.767Z,14.93
2022-12-17T00:37:58.287Z,12.57
2022-12-17T00:39:38.983Z,12.70
2022-12-17T00:41:19.799Z,13.23
2022-12-17T00:43:00.407Z,12.13
2022-12-17T00:44:41.139Z,12.30
2022-12-17T00:46:22.304Z,14.30
2022-12-17T00:48:03.130Z,13.57
2022-12-17T00:49:43.661Z,13.00
2022-12-17T00:51:24.570Z,13.40
2022-12-17T00:53:06.321Z,12.67
2022-12-17T00:54:47.096Z,12.80
2022-12-17T00:56:27.570Z,12.80
2022-12-17T00:58:15.724Z,13.50
2022-12-17T00:59:56.616Z,11.13
2022-12-17T01:01:37.557Z,13.13
2022-12-17T01:03:29.794Z,14.87
2022-12-17T01:05:10.274Z,13.10
2022-12-17T01:06:50.790Z,12.93
2022-12-17T01:08:33.690Z,12.60
2022-12-17T01:10:14.464Z,13.83
2022-12-17T01:11:56.509Z,12.27
2022-12-17T01:13:38.658Z,12.73
2022-12-17T01:15:19.618Z,12.10
2022-12-17T01:17:00.400Z,12.93
2022-12-17T01:18:41.364Z,10.67
2022-12-17T01:20:22.524Z,11.90
2022-12-17T01:22:03.749Z,11.23
2022-12-17T01:23:44.324Z,11.60
2022-12-17T01:25:25.323Z,12.10
2022-12-17T01:27:06.115Z,12.73
2022-12-17T01:28:46.681Z,11.00
2022-12-17T01:30:27.548Z,12.07
2022-12-17T01:32:08.231Z,11.90
2022-12-17T01:33:48.793Z,12.57
2022-12-17T01:35:29.580Z,12.73
2022-12-17T01:37:10.255Z,11.47
2022-12-17T01:38:50.587Z,12.50
2022-12-17T01:40:31.112Z,11.40
2022-12-17T01:42:11.508Z,11.00
2022-12-17T01:43:54.492Z,10.53
2022-12-17T01:45:35.221Z,10.50
2022-12-17T01:47:16.085Z,12.07
2022-12-17T01:49:00.324Z,11.83
2022-12-17T01:50:44.855Z,11.10
2022-12-17T01:52:26.768Z,9.87
2022-12-17T01:54:09.958Z,10.60
2022-12-17T01:55:50.818Z,10.80
2022-12-17T01:57:32.029Z,11.10
2022-12-17T01:59:13.433Z,10.23
2022-12-17T02:00:54.124Z,11.10
2022-12-17T02:02:35.104Z,12.20
2022-12-17T02:04:15.796Z,11.20
2022-12-17T02:06:08.435Z,12.23
2022-12-17T02:07:54.999Z,11.90
2022-12-17T02:09:47.816Z,11.00
2022-12-17T02:11:45.444Z,11.10
2022-12-17T02:13:38.687Z,11.27
2022-12-17T02:15:29.205Z,11.23
2022-12-17T02:17:15.763Z,12.23
2022-12-17T02:19:08.030Z,12.17
2022-12-17T02:21:05.261Z,12.80
2022-12-17T02:22:51.711Z,11.70
2022-12-17T02:24:52.586Z,11.40
2022-12-17T02:26:40.047Z,11.93
2022-12-17T02:28:20.607Z,10.13
2022-12-17T02:30:05.951Z,11.27
2022-12-17T02:31:48.784Z,9.53
2022-12-17T02:33:30.734Z,11.30
2022-12-17T02:35:12.001Z,11.77
2022-12-17T02:36:53.648Z,11.47
2022-12-17T02:38:39.824Z,10.90
2022-12-17T02:40:20.654Z,10.83
2022-12-17T02:42:11.369Z,9.80
2022-12-17T02:43:53.372Z,10.60
2022-12-17T02:45:35.632Z,11.13
2022-12-17T02:47:17.700Z,11.20
2022-12-17T02:48:58.368Z,9.87
2022-12-17T02:50:39.625Z,10.40
2022-12-17T02:52:22.412Z,10.13
2022-12-17T02:54:04.635Z,11.57
2022-12-17T02:55:45.361Z,12.40
2022-12-17T02:57:26.169Z,11.30
2022-12-17T02:59:06.767Z,10.53
2022-12-17T03:00:47.299Z,10.07
2022-12-17T03:02:28.377Z,10.20
2022-12-17T03:04:09.220Z,11.50
2022-12-17T03:05:50.066Z,10.30
2022-12-17T03:07:30.723Z,11.20
2022-12-17T03:09:11.053Z,11.03
2022-12-17T03:10:51.849Z,9.83
2022-12-17T03:12:32.427Z,9.10
2022-12-17T03:14:13.261Z,10.63
2022-12-17T03:15:53.629Z,9.53
2022-12-17T03:17:34.321Z,8.50
2022-12-17T03:19:15.522Z,8.90
2022-12-17T03:20:55.997Z,9.03
2022-12-17T03:22:36.699Z,7.87
2022-12-17T03:24:17.387Z,8.17
2022-12-17T03:25:57.949Z,9.67
2022-12-17T03:27:38.439Z,9.60
2022-12-17T03:29:18.989Z,8.37
2022-12-17T03:30:59.362Z,8.33
2022-12-17T03:32:40.217Z,9.03
2022-12-17T03:34:21.173Z,8.90
2022-12-17T03:36:01.955Z,8.57
2022-12-17T03:37:42.816Z,8.10
2022-12-17T03:39:23.928Z,9.87
2022-12-17T03:41:09.577Z,8.83
2022-12-17T03:42:50.411Z,8.50
2022-12-17T03:44:30.926Z,8.60
2022-12-17T03:46:12.940Z,8.67
2022-12-17T03:47:53.692Z,11.10
2022-12-17T03:49:34.387Z,10.90
2022-12-17T03:51:15.513Z,10.50
2022-12-17T03:52:56.126Z,10.37
2022-12-17T03:54:36.801Z,11.87
2022-12-17T03:56:17.518Z,9.60
2022-12-17T03:57:58.304Z,10.40
2022-12-17T03:59:39.238Z,10.20
2022-12-17T04:01:20.105Z,11.57
2022-12-17T04:03:00.947Z,10.53
2022-12-17T04:04:41.591Z,11.80
2022-12-17T04:06:22.527Z,11.07
2022-12-17T04:08:03.322Z,12.00
2022-12-17T04:09:43.810Z,11.40
2022-12-17T04:11:24.636Z,12.47
2022-12-17T04:13:05.723Z,12.83
2022-12-17T04:14:46.253Z,12.60
2022-12-17T04:16:27.963Z,9.37
2022-12-17T04:18:08.379Z,8.37
2022-12-17T04:19:49.170Z,9.17
2022-12-17T04:21:29.923Z,11.53
2022-12-17T04:23:10.638Z,11.67
2022-12-17T04:24:51.199Z,10.83
2022-12-17T04:26:31.861Z,9.90
2022-12-17T04:28:12.298Z,9.73
2022-12-17T04:29:53.000Z,10.30
2022-12-17T04:31:33.612Z,8.00
2022-12-17T04:33:14.373Z,10.37
2022-12-17T04:34:55.111Z,9.23
2022-12-17T04:36:35.864Z,9.30
2022-12-17T04:38:16.615Z,9.70
2022-12-17T04:39:57.147Z,9.50
2022-12-17T04:41:37.815Z,9.10
2022-12-17T04:43:30.647Z,10.23
2022-12-17T04:45:11.257Z,9.63
2022-12-17T04:46:51.888Z,9.50
2022-12-17T04:48:32.467Z,9.47
2022-12-17T04:50:13.059Z,10.13
2022-12-17T04:51:53.576Z,9.73
2022-12-17T04:53:34.582Z,9.53
2022-12-17T04:55:15.413Z,9.03
2022-12-17T04:56:56.197Z,9.60
2022-12-17T04:58:37.012Z,8.77
2022-12-17T05:00:17.419Z,10.37
2022-12-17T05:01:58.169Z,8.07
2022-12-17T05:03:39.794Z,10.80
2022-12-17T05:05:20.762Z,9.63
2022-12-17T05:07:01.516Z,10.30
2022-12-17T05:08:42.086Z,10.53
2022-12-17T05:10:23.714Z,10.50
2022-12-17T05:12:04.294Z,10.60
2022-12-17T05:13:44.873Z,10.80
2022-12-17T05:15:25.757Z,9.93
2022-12-17T05:17:06.378Z,10.80
2022-12-17T05:18:47.032Z,12.63
2022-12-17T05:20:28.453Z,11.00
2022-12-17T05:22:08.834Z,11.53
2022-12-17T05:23:49.722Z,11.10
2022-12-17T05:25:30.570Z,11.10
2022-12-17T05:27:11.346Z,10.07
2022-12-17T05:28:51.840Z,11.50
2022-12-17T05:30:32.499Z,11.80
2022-12-17T05:32:13.446Z,10.50
2022-12-17T05:33:54.227Z,11.10
2022-12-17T05:35:35.118Z,10.30
2022-12-17T05:37:15.896Z,11.43
2022-12-17T05:39:16.401Z,11.67
2022-12-17T05:40:56.836Z,11.47
2022-12-17T05:42:37.661Z,10.80
2022-12-17T05:44:18.657Z,9.90
2022-12-17T05:46:00.104Z,10.13
2022-12-17T05:47:40.682Z,10.47
2022-12-17T05:49:21.571Z,11.13
2022-12-17T05:51:07.027Z,9.80
2022-12-17T05:52:47.822Z,10.57
2022-12-17T05:54:28.642Z,10.63
2022-12-17T05:56:10.559Z,10.33
2022-12-17T05:57:56.131Z,9.70
2022-12-17T05:59:37.095Z,10.37
2022-12-17T06:01:20.004Z,10.80
2022-12-17T06:03:00.714Z,11.40
2022-12-17T06:04:41.554Z,10.50
2022-12-17T06:06:22.175Z,11.90
2022-12-17T06:08:02.890Z,11.60
2022-12-17T06:09:43.453Z,11.40
2022-12-17T06:11:23.964Z,11.00
2022-12-17T06:13:16.301Z,11.53
2022-12-17T06:14:56.792Z,11.40
2022-12-17T06:16:37.562Z,11.13
2022-12-17T06:18:18.418Z,11.30
2022-12-17T06:19:59.175Z,11.00
2022-12-17T06:21:41.136Z,10.03
2022-12-17T06:23:28.384Z,11.43
2022-12-17T06:25:08.918Z,11.60
2022-12-17T06:26:49.671Z,10.90
2022-12-17T06:28:30.389Z,11.50
2022-12-17T06:30:15.538Z,11.40
2022-12-17T06:32:09.608Z,13.10
2022-12-17T06:33:50.329Z,12.33
2022-12-17T06:35:30.936Z,11.80
2022-12-17T06:37:11.523Z,11.37
2022-12-17T06:38:52.312Z,11.60
2022-12-17T06:40:32.905Z,12.33
2022-12-17T06:42:15.222Z,12.70
2022-12-17T06:43:56.201Z,12.20
2022-12-17T06:45:37.025Z,11.80
2022-12-17T06:47:17.428Z,12.23
2022-12-17T06:48:58.160Z,12.80
2022-12-17T06:50:38.988Z,10.67
2022-12-17T06:52:19.792Z,12.80
2022-12-17T06:54:00.946Z,12.60
2022-12-17T06:55:41.742Z,11.60
2022-12-17T06:57:22.656Z,12.33
2022-12-17T06:59:03.461Z,12.67
2022-12-17T07:00:44.394Z,11.73
2022-12-17T07:02:27.071Z,13.10
2022-12-17T07:04:07.780Z,11.90
2022-12-17T07:05:48.245Z,11.70
2022-12-17T07:07:28.981Z,10.33
2022-12-17T07:09:09.562Z,10.93
2022-12-17T07:10:51.116Z,11.40
2022-12-17T07:12:33.038Z,10.00
2022-12-17T07:14:13.583Z,9.90
2022-12-17T07:15:54.561Z,8.60
2022-12-17T07:17:35.209Z,9.57
2022-12-17T07:19:15.959Z,8.87
2022-12-17T07:20:56.611Z,9.83
2022-12-17T07:22:37.583Z,8.97
2022-12-17T07:24:18.356Z,10.83
2022-12-17T07:25:59.732Z,11.70
2022-12-17T07:27:40.234Z,11.13
2022-12-17T07:29:20.751Z,11.20
2022-12-17T07:31:01.577Z,10.67
2022-12-17T07:32:42.436Z,10.20
2022-12-17T07:34:22.989Z,11.77
2022-12-17T07:36:03.790Z,12.43
2022-12-17T07:37:44.493Z,12.53
2022-12-17T07:39:24.965Z,12.00
2022-12-17T07:41:06.271Z,12.47
2022-12-17T07:42:47.057Z,13.17
2022-12-17T07:44:27.946Z,11.97
2022-12-17T07:46:08.670Z,13.40
2022-12-17T07:47:49.234Z,14.30
2022-12-17T07:49:29.943Z,15.50
2022-12-17T07:51:10.844Z,15.17
2022-12-17T07:52:52.277Z,15.20
2022-12-17T07:54:33.039Z,17.30
2022-12-17T07:56:13.765Z,19.10
2022-12-17T07:57:56.253Z,19.03
2022-12-17T07:59:37.207Z,18.40
2022-12-17T08:01:20.947Z,16.60
2022-12-17T08:03:01.795Z,14.60
2022-12-17T08:04:42.728Z,13.70
2022-12-17T08:06:23.674Z,13.30
2022-12-17T08:08:04.790Z,11.57
2022-12-17T08:09:45.546Z,13.50
2022-12-17T08:11:27.258Z,12.10
2022-12-17T08:13:23.065Z,12.40
2022-12-17T08:15:03.840Z,12.37
2022-12-17T08:16:44.847Z,10.93
2022-12-17T08:18:26.956Z,13.80
2022-12-17T08:20:07.449Z,12.37
2022-12-17T08:21:48.342Z,11.40
2022-12-17T08:23:29.027Z,11.83
2022-12-17T08:25:09.571Z,12.30
2022-12-17T08:26:50.366Z,12.90
2022-12-17T08:28:49.997Z,11.17
2022-12-17T08:30:31.343Z,12.13
2022-12-17T08:32:12.283Z,10.90
2022-12-17T08:33:53.055Z,11.03
2022-12-17T08:35:34.027Z,11.60
2022-12-17T08:37:14.608Z,16.77
2022-12-17T08:38:55.401Z,14.97
2022-12-17T08:40:35.877Z,12.97
2022-12-17T08:42:16.648Z,9.97
2022-12-17T08:43:57.108Z,11.77
2022-12-17T08:45:37.591Z,12.90
2022-12-17T08:47:18.407Z,14.73
2022-12-17T08:48:58.801Z,14.80
2022-12-17T08:50:39.637Z,15.40
2022-12-17T08:52:20.057Z,16.03
2022-12-17T08:54:00.839Z,11.50
2022-12-17T08:55:41.402Z,12.40
2022-12-17T08:57:31.369Z,11.70
2022-12-17T08:59:12.850Z,13.70
2022-12-17T09:00:53.395Z,13.10
2022-12-17T09:02:37.882Z,12.37
2022-12-17T09:04:18.600Z,11.77
2022-12-17T09:05:59.424Z,12.43
2022-12-17T09:07:40.076Z,12.60
2022-12-17T09:09:20.800Z,10.30
2022-12-17T09:11:01.243Z,11.60
2022-12-17T09:12:42.068Z,11.67
2022-12-17T09:14:22.764Z,12.03
2022-12-17T09:16:13.159Z,14.50
2022-12-17T09:17:53.816Z,12.33
2022-12-17T09:19:34.306Z,13.27
2022-12-17T09:21:15.204Z,12.70
2022-12-17T09:22:55.876Z,14.13
2022-12-17T09:24:36.651Z,14.77
2022-12-17T09:26:17.442Z,13.43
2022-12-17T09:27:58.273Z,15.23
2022-12-17T09:29:39.050Z,16.20
2022-12-17T09:31:20.364Z,15.00
2022-12-17T09:33:01.207Z,14.77
2022-12-17T09:34:41.943Z,13.07
2022-12-17T09:36:25.803Z,14.70
2022-12-17T09:38:14.228Z,12.77
2022-12-17T09:39:54.646Z,13.50
2022-12-17T09:41:56.653Z,14.80
2022-12-17T09:44:03.629Z,14.87
2022-12-17T09:45:54.996Z,12.73
2022-12-17T09:48:10.898Z,12.60
2022-12-17T09:49:52.040Z,12.40
2022-12-17T09:51:41.896Z,13.70
2022-12-17T09:53:37.679Z,12.50
2022-12-17T09:55:19.681Z,12.70
2022-12-17T09:57:02.053Z,12.00
2022-12-17T09:58:45.459Z,12.10
2022-12-17T10:00:56.259Z,12.80
2022-12-17T10:02:50.028Z,13.30
2022-12-17T10:04:39.346Z,13.10
2022-12-17T10:06:43.892Z,15.30
2022-12-17T10:08:25.647Z,15.80
2022-12-17T10:10:10.330Z,13.80
2022-12-17T10:11:50.963Z,14.80
2022-12-17T10:13:35.079Z,13.73
2022-12-17T10:15:16.001Z,13.20
2022-12-17T10:17:11.388Z,15.17
2022-12-17T10:18:52.599Z,15.40
2022-12-17T10:21:11.463Z,16.97
2022-12-17T10:23:04.077Z,14.23
2022-12-17T10:24:44.892Z,15.10
2022-12-17T10:26:25.669Z,14.40
2022-12-17T10:28:06.346Z,15.20
2022-12-17T10:29:53.043Z,14.77
2022-12-17T10:31:38.983Z,15.33
2022-12-17T10:33:24.213Z,15.80
2022-12-17T10:35:06.148Z,13.37
2022-12-17T10:36:47.316Z,12.70
2022-12-17T10:38:43.407Z,12.60
2022-12-17T10:40:44.691Z,11.20
2022-12-17T10:42:44.678Z,12.13
2022-12-17T10:44:44.055Z,11.10
2022-12-17T10:46:24.859Z,11.50
2022-12-17T10:48:05.703Z,10.90
2022-12-17T10:49:46.609Z,10.53
2022-12-17T10:51:50.417Z,11.50
2022-12-17T10:53:40.637Z,11.53
2022-12-17T10:55:24.871Z,10.67
2022-12-17T10:57:11.734Z,11.00
2022-12-17T10:58:53.198Z,11.77
2022-12-17T11:00:49.707Z,13.67
2022-12-17T11:02:48.471Z,12.43
2022-12-17T11:04:41.506Z,11.80
2022-12-17T11:06:22.246Z,12.43
2022-12-17T11:08:03.426Z,12.70
2022-12-17T11:09:55.978Z,12.67
2022-12-17T11:11:36.557Z,11.77
2022-12-17T11:13:22.419Z,13.13
2022-12-17T11:15:10.499Z,12.80
2022-12-17T11:17:00.265Z,11.90
2022-12-17T11:18:55.136Z,12.03
2022-12-17T11:21:12.952Z,12.93
2022-12-17T11:23:06.585Z,12.30
2022-12-17T11:24:53.862Z,11.43
2022-12-17T11:26:38.195Z,11.33
2022-12-17T11:28:42.274Z,12.37
2022-12-17T11:30:34.102Z,12.00
2022-12-17T11:32:17.344Z,11.80
2022-12-17T11:34:15.818Z,11.07
2022-12-17T11:36:02.212Z,11.53
2022-12-17T11:37:55.682Z,11.87
2022-12-17T11:40:03.111Z,11.87
2022-12-17T11:41:51.688Z,12.00
2022-12-17T11:43:41.381Z,10.77
2022-12-17T11:45:36.116Z,11.33
2022-12-17T11:47:23.477Z,11.53
2022-12-17T11:49:32.420Z,12.27
2022-12-17T11:51:23.037Z,11.53
2022-12-17T11:53:34.459Z,11.63
2022-12-17T11:55:18.392Z,12.07
2022-12-17T11:57:04.085Z,11.40
2022-12-17T11:59:08.203Z,11.03
2022-12-17T12:00:58.455Z,11.77
2022-12-17T12:03:00.435Z,10.23
2022-12-17T12:04:59.070Z,11.63
2022-12-17T12:06:52.330Z,11.83
2022-12-17T12:08:45.307Z,13.70
2022-12-17T12:10:36.677Z,13.23
2022-12-17T12:12:23.160Z,12.17
2022-12-17T12:14:15.819Z,12.17
2022-12-17T12:16:05.545Z,11.87
2022-12-17T12:17:58.628Z,11.33
2022-12-17T12:20:10.902Z,11.00
2022-12-17T12:21:59.437Z,12.27
2022-12-17T12:23:59.050Z,11.00
2022-12-17T12:25:45.143Z,10.23
2022-12-17T12:27:47.277Z,11.93
2022-12-17T12:29:50.480Z,11.37
2022-12-17T12:31:45.692Z,13.50
2022-12-17T12:33:41.367Z,13.00
2022-12-17T12:35:23.500Z,13.03
2022-12-17T12:37:06.326Z,12.63
2022-12-17T12:38:52.403Z,11.87
2022-12-17T12:40:58.120Z,11.43
2022-12-17T12:42:46.137Z,10.00
2022-12-17T12:44:49.553Z,11.53
2022-12-17T12:46:47.558Z,11.57
2022-12-17T12:48:51.113Z,10.37
2022-12-17T12:50:40.876Z,11.80
2022-12-17T12:52:21.790Z,11.43
2022-12-17T12:54:02.472Z,9.97
2022-12-17T12:55:58.620Z,11.30
2022-12-17T12:58:01.987Z,11.43
2022-12-17T12:59:53.616Z,12.33
2022-12-17T13:01:34.396Z,13.60
2022-12-17T13:03:46.170Z,13.57
2022-12-17T13:05:46.370Z,14.60
2022-12-17T13:07:26.747Z,14.40
2022-12-17T13:08:50.629Z,15.03
2022-12-17T13:10:28.336Z,14.77
2022-12-17T13:11:59.653Z,12.87
2022-12-17T13:13:35.990Z,13.30
2022-12-17T13:15:07.211Z,12.73
2022-12-17T13:16:42.561Z,13.17
2022-12-17T13:18:33.918Z,13.23
2022-12-17T13:20:01.390Z,12.43
2022-12-17T13:21:26.956Z,13.10
2022-12-17T13:22:52.485Z,13.23
2022-12-17T13:24:26.139Z,14.23
2022-12-17T13:25:48.209Z,14.50
2022-12-17T13:27:38.077Z,13.63
2022-12-17T13:29:32.273Z,13.47
2022-12-17T13:31:06.895Z,14.80
2022-12-17T13:32:38.771Z,13.90
2022-12-17T13:34:12.868Z,14.57
2022-12-17T13:35:46.052Z,14.90
2022-12-17T13:37:19.934Z,14.67
2022-12-17T13:38:51.552Z,14.17
2022-12-17T13:40:33.835Z,14.53
2022-12-17T13:41:59.469Z,13.80
2022-12-17T13:43:24.905Z,14.70
2022-12-17T13:44:47.495Z,14.87
2022-12-17T13:46:23.297Z,15.33
2022-12-17T13:47:54.366Z,14.27
2022-12-17T13:49:28.102Z,15.43
2022-12-17T13:50:56.654Z,14.17
2022-12-17T13:52:21.253Z,13.63
2022-12-17T13:53:53.027Z,15.00
2022-12-17T13:55:25.388Z,15.10
2022-12-17T13:56:47.523Z,14.37
2022-12-17T13:58:30.409Z,15.80
2022-12-17T13:59:55.106Z,15.82
2022-12-17T14:01:17.305Z,16.30
2022-12-17T14:02:41.782Z,16.00
2022-12-17T14:04:06.603Z,14.80
2022-12-17T14:05:38.606Z,15.70
2022-12-17T14:07:04.622Z,15.23
2022-12-17T14:08:29.162Z,14.67
2022-12-17T14:09:51.527Z,13.73
2022-12-17T14:11:32.240Z,12.73
2022-12-17T14:13:07.437Z,12.53
2022-12-17T14:14:34.502Z,12.67
2022-12-17T14:15:56.569Z,13.87
2022-12-17T14:17:25.415Z,13.80
2022-12-17T14:18:52.071Z,12.50
2022-12-17T14:20:18.518Z,13.33
2022-12-17T14:21:41.196Z,13.57
2022-12-17T14:23:28.797Z,14.30
2022-12-17T14:24:51.235Z,15.20
2022-12-17T14:26:13.805Z,15.00
2022-12-17T14:27:36.719Z,13.70
2022-12-17T14:28:58.789Z,14.03
2022-12-17T14:31:17.263Z,13.70
2022-12-17T14:32:36.080Z,13.30
2022-12-17T14:34:08.469Z,12.17
2022-12-17T14:35:34.940Z,13.87
2022-12-17T14:36:59.573Z,13.73
2022-12-17T14:38:37.413Z,14.00
2022-12-17T14:40:06.220Z,14.50
2022-12-17T14:41:54.512Z,14.60
2022-12-17T14:43:16.750Z,15.30
2022-12-17T14:44:54.343Z,14.00
2022-12-17T14:46:22.433Z,14.50
2022-12-17T14:48:04.254Z,14.23
2022-12-17T14:49:26.378Z,14.10
2022-12-17T14:50:55.944Z,14.80
2022-12-17T14:52:34.836Z,13.03
2022-12-17T14:54:18.143Z,14.10
2022-12-17T14:55:55.659Z,13.90
2022-12-17T14:57:21.877Z,13.97
2022-12-17T14:58:46.952Z,14.50
2022-12-17T15:00:09.849Z,13.80
2022-12-17T15:01:32.290Z,13.73
2022-12-17T15:02:55.590Z,15.20
2022-12-17T15:04:18.027Z,13.00
2022-12-17T15:05:40.128Z,14.37
2022-12-17T15:07:02.311Z,14.63
2022-12-17T15:08:24.701Z,14.13
2022-12-17T15:09:46.838Z,14.43
2022-12-17T15:11:15.833Z,13.83
2022-12-17T15:12:39.639Z,15.97
2022-12-17T15:14:01.649Z,15.40
2022-12-17T15:15:23.732Z,16.37
2022-12-17T15:16:46.415Z,14.77
2022-12-17T15:18:08.527Z,15.20
2022-12-17T15:19:30.576Z,15.70
2022-12-17T15:20:53.083Z,14.83
2022-12-17T15:22:16.780Z,15.10
2022-12-17T15:23:42.896Z,14.90
2022-12-17T15:25:05.783Z,14.20
2022-12-17T15:26:27.944Z,14.33
2022-12-17T15:27:50.009Z,13.20
2022-12-17T15:29:12.469Z,14.20
2022-12-17T15:30:34.588Z,13.13
2022-12-17T15:31:56.705Z,14.73
2022-12-17T15:33:18.773Z,13.30
2022-12-17T15:34:40.897Z,12.90
2022-12-17T15:36:03.168Z,13.70
2022-12-17T15:37:28.402Z,14.53
2022-12-17T15:38:50.529Z,14.03
2022-12-17T15:40:12.889Z,15.00
2022-12-17T15:41:53.351Z,15.10
2022-12-17T15:43:16.000Z,14.53
2022-12-17T15:44:38.133Z,15.17
2022-12-17T15:46:01.514Z,14.70
2022-12-17T15:47:23.704Z,15.07
2022-12-17T15:48:50.080Z,15.90
2022-12-17T15:50:12.831Z,16.20
2022-12-17T15:51:34.912Z,16.93
2022-12-17T15:52:56.960Z,15.43
2022-12-17T15:54:18.941Z,16.40
2022-12-17T15:55:41.446Z,14.83
2022-12-17T15:57:03.604Z,14.27
2022-12-17T15:58:25.623Z,14.97
2022-12-17T15:59:47.713Z,14.27
2022-12-17T16:01:09.775Z,15.10
2022-12-17T16:02:32.316Z,14.47
2022-12-17T16:03:54.843Z,15.17
2022-12-17T16:05:17.649Z,16.80
2022-12-17T16:06:39.859Z,15.83
2022-12-17T16:08:02.598Z,15.50
2022-12-17T16:09:26.948Z,14.90
2022-12-17T16:10:49.039Z,15.90
2022-12-17T16:12:11.144Z,14.37
2022-12-17T16:13:33.201Z,14.27
2022-12-17T16:14:55.302Z,14.70
2022-12-17T16:16:17.576Z,13.90
2022-12-17T16:17:39.696Z,13.93
2022-12-17T16:19:02.537Z,13.70
2022-12-17T16:20:24.715Z,15.07
2022-12-17T16:21:47.293Z,14.83
2022-12-17T16:23:09.496Z,14.10
2022-12-17T16:24:31.565Z,15.27
2022-12-17T16:25:58.412Z,14.43
2022-12-17T16:27:21.156Z,13.20
2022-12-17T16:28:43.244Z,14.27
2022-12-17T16:30:06.133Z,14.47
2022-12-17T16:31:28.247Z,14.23
2022-12-17T16:32:50.355Z,14.77
2022-12-17T16:34:13.261Z,14.60
2022-12-17T16:35:35.329Z,14.37
2022-12-17T16:36:57.681Z,15.77
2022-12-17T16:38:19.763Z,13.70
2022-12-17T16:39:41.921Z,14.37
2022-12-17T16:41:04.063Z,14.40
2022-12-17T16:42:26.497Z,14.80
2022-12-17T16:43:48.807Z,13.47
2022-12-17T16:45:11.081Z,14.53
2022-12-17T16:46:35.874Z,13.40
2022-12-17T16:47:57.981Z,13.73
2022-12-17T16:49:22.403Z,14.40
2022-12-17T16:50:44.939Z,13.97
2022-12-17T16:52:07.052Z,15.20
2022-12-17T16:53:31.433Z,15.97
2022-12-17T16:54:53.535Z,16.37
2022-12-17T16:56:23.264Z,18.20
2022-12-17T16:57:48.432Z,19.50
2022-12-17T16:59:12.181Z,20.23
2022-12-17T17:00:34.905Z,21.67
2022-12-17T17:01:57.434Z,21.23
2022-12-17T17:03:19.811Z,21.27
2022-12-17T17:04:42.158Z,21.60
2022-12-17T17:06:04.799Z,20.43
2022-12-17T17:07:26.881Z,16.93
2022-12-17T17:08:49.598Z,15.60
2022-12-17T17:10:11.743Z,16.10
2022-12-17T17:11:33.865Z,15.47
2022-12-17T17:12:56.161Z,16.37
2022-12-17T17:14:18.592Z,15.87
2022-12-17T17:15:40.804Z,15.30
2022-12-17T17:17:02.997Z,15.00
2022-12-17T17:18:25.147Z,15.87
2022-12-17T17:19:47.193Z,16.00
2022-12-17T17:21:27.953Z,15.63
2022-12-17T17:22:50.053Z,14.97
2022-12-17T17:24:20.318Z,16.03
2022-12-17T17:25:58.361Z,14.20
2022-12-17T17:27:21.072Z,13.50
2022-12-17T17:28:44.925Z,14.17
2022-12-17T17:30:07.808Z,14.63
2022-12-17T17:33:12.442Z,14.17
2022-12-17T17:34:38.722Z,15.93
2022-12-17T17:36:05.338Z,14.33
2022-12-17T17:37:27.931Z,16.30
2022-12-17T17:38:51.885Z,13.50
2022-12-17T17:40:14.101Z,16.30
2022-12-17T17:41:36.741Z,15.00
2022-12-17T17:42:58.763Z,14.87
2022-12-17T17:44:20.853Z,16.10
2022-12-17T17:45:43.220Z,14.57
2022-12-17T17:47:05.474Z,16.57
2022-12-17T17:48:27.558Z,14.93
2022-12-17T17:49:49.606Z,16.37
2022-12-17T17:52:07.802Z,15.57
2022-12-17T17:53:16.852Z,15.80
2022-12-17T17:54:42.127Z,16.57
2022-12-17T17:56:15.646Z,15.93
2022-12-17T17:57:37.729Z,15.30
2022-12-17T17:59:05.958Z,15.63
2022-12-17T18:00:28.336Z,16.60
2022-12-17T18:01:51.815Z,15.60
2022-12-17T18:03:14.065Z,15.60
2022-12-17T18:04:36.423Z,16.37
2022-12-17T18:06:05.861Z,14.40
2022-12-17T18:07:28.384Z,16.10
2022-12-17T18:08:50.673Z,17.10
2022-12-17T18:10:12.790Z,17.13
2022-12-17T18:11:36.607Z,16.60
2022-12-17T18:13:17.240Z,16.00
2022-12-17T18:14:46.705Z,15.27
2022-12-17T18:16:20.527Z,16.57
2022-12-17T18:17:47.053Z,15.40
2022-12-17T18:19:15.701Z,15.30
2022-12-17T18:20:37.811Z,15.43
2022-12-17T18:21:59.893Z,15.10
2022-12-17T18:23:21.906Z,14.30
2022-12-17T18:24:43.967Z,16.30
2022-12-17T18:26:19.558Z,15.00
2022-12-17T18:27:42.440Z,17.37
2022-12-17T18:29:12.330Z,15.83
2022-12-17T18:30:37.588Z,16.90
2022-12-17T18:31:59.727Z,15.07
2022-12-17T18:33:21.861Z,15.90
2022-12-17T18:34:44.037Z,15.00
2022-12-17T18:36:14.723Z,16.90
2022-12-17T18:37:37.527Z,16.30
2022-12-17T18:39:08.299Z,17.00
2022-12-17T18:40:33.449Z,14.93
2022-12-17T18:42:14.666Z,15.97
2022-12-17T18:43:39.394Z,15.93
2022-12-17T18:45:01.753Z,15.73
2022-12-17T18:46:24.212Z,15.50
2022-12-17T18:47:47.787Z,15.80
2022-12-17T18:49:12.990Z,15.13
2022-12-17T18:50:35.335Z,14.90
2022-12-17T18:51:57.447Z,16.90
2022-12-17T18:53:19.488Z,14.90
2022-12-17T18:54:41.565Z,15.17
2022-12-17T18:56:11.936Z,15.57
2022-12-17T18:57:34.028Z,16.40
2022-12-17T18:58:57.058Z,16.53
2022-12-17T19:00:19.202Z,17.20
2022-12-17T19:01:42.463Z,17.30
2022-12-17T19:03:05.604Z,17.30
2022-12-17T19:04:27.817Z,15.43
2022-12-17T19:05:54.102Z,15.17
2022-12-17T19:07:16.436Z,14.30
2022-12-17T19:08:38.870Z,16.10
2022-12-17T19:10:01.151Z,17.10
2022-12-17T19:11:23.286Z,16.10
2022-12-17T19:12:45.429Z,15.43
2022-12-17T19:14:07.531Z,15.73
2022-12-17T19:15:29.684Z,15.53
2022-12-17T19:16:53.600Z,16.07
2022-12-17T19:18:15.751Z,14.77
2022-12-17T19:19:37.824Z,14.93
2022-12-17T19:21:00.111Z,14.70
2022-12-17T19:22:22.247Z,15.40
2022-12-17T19:23:44.334Z,15.20
2022-12-17T19:25:06.601Z,16.80
2022-12-17T19:26:30.128Z,15.57
2022-12-17T19:27:52.170Z,16.00
2022-12-17T19:29:17.340Z,15.47
2022-12-17T19:30:39.494Z,15.07
2022-12-17T19:32:01.675Z,17.03
2022-12-17T19:33:23.908Z,15.37
2022-12-17T19:34:45.984Z,16.07
2022-12-17T19:36:13.724Z,15.23
2022-12-17T19:37:35.829Z,15.60
2022-12-17T19:39:00.611Z,15.10
2022-12-17T19:40:22.674Z,14.77
2022-12-17T19:41:45.241Z,15.70
2022-12-17T19:43:07.305Z,15.63
2022-12-17T19:44:29.771Z,15.10
2022-12-17T19:45:51.929Z,15.47
2022-12-17T19:47:14.206Z,14.30
2022-12-17T19:48:41.308Z,15.00
2022-12-17T19:50:06.283Z,16.13
2022-12-17T19:51:29.886Z,16.23
2022-12-17T19:52:51.921Z,16.77
2022-12-17T19:54:15.238Z,16.60
2022-12-17T19:55:37.568Z,14.57
2022-12-17T19:57:00.039Z,17.07
2022-12-17T19:58:25.309Z,15.70
2022-12-17T19:59:47.441Z,16.50
2022-12-17T20:01:16.800Z,15.00
2022-12-17T20:02:39.458Z,15.23
2022-12-17T20:04:01.640Z,15.63
2022-12-17T20:05:23.676Z,16.67
2022-12-17T20:06:45.949Z,15.57
2022-12-17T20:08:08.036Z,15.57
2022-12-17T20:09:30.165Z,14.73
2022-12-17T20:10:52.249Z,15.07
2022-12-17T20:12:14.282Z,15.00
2022-12-17T20:13:36.351Z,15.73
2022-12-17T20:14:58.456Z,16.93
2022-12-17T20:16:20.695Z,15.90
2022-12-17T20:17:42.826Z,14.30
2022-12-17T20:19:07.659Z,15.30
2022-12-17T20:20:29.697Z,16.10
2022-12-17T20:21:52.387Z,16.10
2022-12-17T20:23:14.507Z,15.80
2022-12-17T20:24:39.495Z,14.53
2022-12-17T20:26:10.574Z,16.57
2022-12-17T20:27:32.647Z,15.50
2022-12-17T20:28:55.615Z,15.60
2022-12-17T20:30:17.717Z,15.83
2022-12-17T20:31:40.102Z,16.23
2022-12-17T20:33:03.657Z,17.37
2022-12-17T20:34:25.846Z,16.07
2022-12-17T20:35:47.927Z,14.90
2022-12-17T20:37:10.012Z,15.30
2022-12-17T20:38:32.485Z,16.03
2022-12-17T20:39:55.069Z,15.50
2022-12-17T20:41:21.136Z,15.93
2022-12-17T20:42:43.217Z,16.33
2022-12-17T20:44:08.586Z,14.53
2022-12-17T20:45:30.769Z,15.63
2022-12-17T20:46:52.999Z,16.60
2022-12-17T20:48:15.336Z,14.43